This is the latest recevied weather packets stored in our database for station/object KJ5IIV. If no packets are shown the sender has not sent any weather packets the latest 10 day(s).
| Time | Temp. | Humidity | Pressure | Rain* | Wind** | Luminosity | Snow |
|---|---|---|---|---|---|---|---|
| 1777307956 | 29.44° C | 66% | 1009.4 hPa | 0 mm | - | 916 W/m² | - |
| 1777307654 | 29.44° C | 69% | 1009.4 hPa | 0 mm | - | 927 W/m² | - |
| 1777307350 | 29.44° C | 68% | 1009.6 hPa | 0 mm | - | 287 W/m² | - |
| 1777307048 | 30° C | 66% | 1009.5 hPa | 0 mm | - | 485 W/m² | - |
| 1777306745 | 29.44° C | 68% | 1009.4 hPa | 0 mm | - | 819 W/m² | - |
| 1777306442 | 28.89° C | 69% | 1009.5 hPa | 0 mm | - | 854 W/m² | - |
| 1777306137 | 28.89° C | 69% | 1009.4 hPa | 0 mm | - | 258 W/m² | - |
| 1777305833 | 28.89° C | 71% | 1009.4 hPa | 0 mm | - | 833 W/m² | - |
| 1777305529 | 28.89° C | 69% | 1009.3 hPa | 0 mm | - | 648 W/m² | - |
| 1777305224 | 28.89° C | 70% | 1009.3 hPa | 0 mm | - | 785 W/m² | - |
| 1777304919 | 28.33° C | 72% | 1009.3 hPa | 0 mm | - | 829 W/m² | - |
| 1777304616 | 28.33° C | 72% | 1009.3 hPa | 0 mm | - | 323 W/m² | - |
| 1777304313 | 27.78° C | 76% | 1009.2 hPa | 0 mm | - | 629 W/m² | - |
| 1777304010 | 27.78° C | 74% | 1009.3 hPa | 0 mm | - | 292 W/m² | - |
| 1777303707 | 28.33° C | 73% | 1009.4 hPa | 0 mm | - | 328 W/m² | - |
| 1777303404 | 28.89° C | 70% | 1009.4 hPa | 0 mm | - | 344 W/m² | - |
| 1777303101 | 27.78° C | 74% | 1009.2 hPa | 0 mm | - | 672 W/m² | - |
| 1777302800 | 27.78° C | 74% | 1009.1 hPa | 0 mm | - | 572 W/m² | - |
| 1777302497 | 27.78° C | 74% | 1009.3 hPa | 0 mm | - | 406 W/m² | - |
| 1777302195 | 28.33° C | 72% | 1009.3 hPa | 0 mm | - | 382 W/m² | - |
| 1777301892 | 28.33° C | 75% | 1009.3 hPa | 0 mm | - | 576 W/m² | - |
| 1777301589 | 27.78° C | 75% | 1009.2 hPa | 0 mm | - | 614 W/m² | - |
| 1777301286 | 27.22° C | 77% | 1009.1 hPa | 0 mm | - | 556 W/m² | - |
| 1777300983 | 26.67° C | 78% | 1009.4 hPa | 0 mm | - | 532 W/m² | - |
| 1777300681 | 26.11° C | 81% | 1009.2 hPa | 0 mm | - | 364 W/m² | - |
* Rain latest hour (hover to see other rain measurements)
** Current wind speed in m/s (hover to see current wind gust speed)